• Join FlightAware (Why Join?)
  • Login
  • US Flag 
Gobble Gobble! 
02:24AM EST


 

Airport Tracker/Info


-or-


 

Live Flight TrackerFlight Track Log ✈ JZA8745 ✈ 08-Sep-2013 ✈ CZBF - CYUL

Flight Track Log - Related Links

Times and Time Zones

All times are in EDT time to prevent confusion due to time zone crossing. See the JZA8745 flight status page for this flight to view local times or setup timezone preferences in your user account.

Time Position Orientation Groundspeed Altitude Reporting Facility
EDT Latitude Longitude Course Direction KTS MPH feet Rate Location/Type
03:21PM 47.5667 -65.8833 239° Southwest 140 161 4,800  Level Moncton Center
03:22PM 47.5333 -65.9667 239° Southwest 170 196 5,700 1,440 Climbing Moncton Center
03:23PM 47.5167 -66.0167 244° Southwest 180 207 7,700 1,560 Climbing Moncton Center
03:24PM 47.5000 -66.0833 250° West 170 196 8,900 1,140 Climbing Moncton Center
03:25PM 47.4667 -66.1500 234° Southwest 180 207 10,000 1,020 Climbing Moncton Center
03:26PM 47.4500 -66.2000 244° Southwest 180 207 11,000 840 Climbing Moncton Center
03:27PM 47.4333 -66.2833 254° West 190 219 11,700 660 Climbing Moncton Center
03:28PM 47.4000 -66.3500 234° Southwest 200 230 12,400 600 Climbing Moncton Center
03:29PM 47.3833 -66.4167 250° West 200 230 13,000 660 Climbing Moncton Center
03:30PM 47.3500 -66.5167 244° Southwest 210 242 13,800 780 Climbing Moncton Center
03:31PM 47.3333 -66.5667 244° Southwest 200 230 14,600 660 Climbing Moncton Center
03:32PM 47.3000 -66.6667 244° Southwest 200 230 15,200 600 Climbing Moncton Center
03:33PM 47.2500 -66.7333 222° Southwest 210 242 15,800 600 Climbing Moncton Center
03:34PM 47.2333 -66.8167 254° West 220 253 16,400 600 Climbing Moncton Center
03:35PM 47.2000 -66.8833 234° Southwest 220 253 17,000 600 Climbing Moncton Center
03:36PM 47.1667 -66.9833 244° Southwest 220 253 17,600 660 Climbing Moncton Center
03:37PM 47.1500 -67.0500 250° West 220 253 18,400 600 Climbing Moncton Center
03:38PM 47.1167 -67.1333 240° Southwest 220 253 18,900 480 Climbing Moncton Center
03:39PM 47.1000 -67.2333 256° West 220 253 19,400 480 Climbing Moncton Center
03:40PM 47.0667 -67.3000 234° Southwest 220 253 19,900 540 Climbing Moncton Center
03:41PM 47.0167 -67.3667 222° Southwest 220 253 20,500 540 Climbing Moncton Center
03:42PM 47.0000 -67.4333 250° West 210 242 21,000 480 Climbing Moncton Center
03:43PM 46.9667 -67.5333 244° Southwest 220 253 21,500 480 Climbing Moncton Center
03:44PM 46.9500 -67.6167 254° West 210 242 22,000 240 Climbing Moncton Center
03:45PM 46.9167 -67.6833 234° Southwest 210 242 22,000  Level Moncton Center
03:46PM 46.8833 -67.7500 234° Southwest 230 265 22,000  Level Moncton Center
03:47PM 46.8667 -67.8500 256° West 220 253 22,000  Level Moncton Center
03:48PM 46.8167 -67.9167 222° Southwest 230 265 22,000  Level Moncton Center
03:49PM 46.7833 -67.9833 234° Southwest 230 265 22,000  Level Moncton Center
03:50PM 46.7667 -68.0833 256° West 230 265 22,000  Level Moncton Center
03:51PM 46.7333 -68.1667 240° Southwest 230 265 22,000  Level Moncton Center
03:52PM 46.7167 -68.2500 254° West 230 265 22,000  Level Moncton Center
03:53PM 46.7000 -68.3500 256° West 230 265 22,000  Level Moncton Center
03:54PM 46.6500 -68.4167 222° Southwest 240 276 22,000  Level Moncton Center
03:55PM 46.6333 -68.5167 256° West 240 276 22,000  Level Moncton Center
03:56PM 46.6167 -68.6167 256° West 240 276 22,000  Level Moncton Center
03:57PM 46.5833 -68.6833 234° Southwest 220 253 22,000  Level Moncton Center
03:58PM 46.5667 -68.7833 256° West 230 265 22,000  Level Moncton Center
03:59PM 46.5333 -68.8500 234° Southwest 230 265 22,000  Level Moncton Center
04:00PM 46.5000 -68.9500 244° Southwest 230 265 22,000  Level Moncton Center
04:01PM 46.4833 -69.0333 254° West 230 265 22,000  Level Moncton Center
04:02PM 46.4500 -69.1167 240° Southwest 230 265 22,000  Level Moncton Center
04:03PM 46.4500 -69.1833 270° West 230 265 22,000  Level Moncton Center
04:04PM 46.4000 -69.2833 234° Southwest 220 253 22,000  Level Moncton Center
04:05PM 46.3833 -69.3500 250° West 230 265 22,000  Level Moncton Center
04:06PM 46.3667 -69.4000 244° Southwest 220 253 22,000  Level Montreal Center
04:07PM 46.3606 -69.4728 263° West 236 272 22,000  Level Boston Center
04:08PM 46.3356 -69.5556 246° West 231 266 22,000  Level Boston Center
04:09PM 46.3083 -69.6378 244° Southwest 231 266 22,000  Level Boston Center
04:10PM 46.2811 -69.7233 245° Southwest 231 266 22,000  Level Boston Center
04:11PM 46.2561 -69.8056 246° West 231 266 22,000  Level Boston Center
04:12PM 46.2289 -69.8908 245° Southwest 236 272 22,000  Level Boston Center
04:13PM 46.2056 -69.9728 248° West 236 272 22,000  Level Boston Center
04:14PM 46.1781 -70.0550 244° Southwest 236 272 22,000  Level Boston Center
04:15PM 46.1528 -70.1369 246° West 236 272 22,000  Level Boston Center
04:15PM 46.1333 -70.2000 246° West 220 253 22,000  Level Moncton Center
04:16PM 46.1167 -70.2167 215° Southwest 220 253 22,000  Level Montreal Center
04:17PM 46.0833 -70.3167 244° Southwest 220 253 22,000  Level Montreal Center
04:18PM 46.0667 -70.3833 250° West 220 253 22,000  Level Montreal Center
04:19PM 46.0333 -70.4667 240° Southwest 220 253 22,000  Level Montreal Center
04:20PM 46.0000 -70.5333 234° Southwest 230 265 22,000  Level Montreal Center
04:21PM 45.9833 -70.6333 257° West 230 265 22,000  Level Montreal Center
04:22PM 45.9500 -70.7167 240° Southwest 230 265 22,000  Level Montreal Center
04:23PM 45.9167 -70.7833 234° Southwest 240 276 22,000  Level Montreal Center
04:24PM 45.9000 -70.8833 257° West 220 253 22,000  Level Montreal Center
04:25PM 45.9000 -70.9500 270° West 210 242 22,000  Level Montreal Center
04:26PM 45.9000 -71.0500 270° West 220 253 22,000  Level Montreal Center
04:27PM 45.8833 -71.1500 257° West 210 242 22,000  Level Montreal Center
04:28PM 45.8667 -71.2167 250° West 210 242 22,000  Level Montreal Center
04:29PM 45.8833 -71.3000 286° West 220 253 22,000  Level Montreal Center
04:30PM 45.8667 -71.4000 257° West 220 253 22,000  Level Montreal Center
04:31PM 45.8500 -71.4833 254° West 220 253 22,000  Level Montreal Center
04:32PM 45.8500 -71.5667 270° West 220 253 22,000  Level Montreal Center
04:33PM 45.8333 -71.6667 257° West 220 253 22,000  Level Montreal Center
04:34PM 45.8333 -71.7500 270° West 220 253 22,000  Level Montreal Center
04:35PM 45.8333 -71.8333 270° West 220 253 22,000  Level Montreal Center
04:36PM 45.8167 -71.9333 257° West 230 265 22,000  Level Montreal Center
04:37PM 45.8000 -72.0167 254° West 230 265 22,000  Level Montreal Center
04:38PM 45.7833 -72.1000 254° West 220 253 22,000 -240 Level Montreal Center
04:39PM 45.8000 -72.2000 283° West 230 265 21,600 -780 Descending Montreal Center
04:40PM 45.7833 -72.2833 254° West 250 288 20,500 -1,260 Descending Montreal Center
04:41PM 45.7667 -72.4167 260° West 270 311 19,100 -1,380 Descending Montreal Center
04:42PM 45.7500 -72.5000 254° West 280 322 17,800 -1,380 Descending Montreal Center
04:43PM 45.7500 -72.6000 270° West 270 311 16,400 -1,500 Descending Montreal Center
04:44PM 45.7500 -72.7333 270° West 270 311 14,900 -1,500 Descending Montreal Center
04:45PM 45.7333 -72.8167 254° West 270 311 13,500 -1,500 Descending Montreal Center
04:46PM 45.7167 -72.9500 260° West 260 299 12,000 -1,440 Descending Montreal Center
04:47PM 45.7000 -73.0333 254° West 260 299 10,700 -1,380 Descending Montreal Center
04:48PM 45.6833 -73.1333 257° West 260 299 9,300 -1,440 Descending Montreal Center
04:49PM 45.6667 -73.2333 257° West 260 299 7,900 -1,380 Descending Montreal Center
04:50PM 45.6667 -73.3333 270° West 230 265 6,600 -1,260 Descending Montreal Center
04:51PM 45.6500 -73.4333 257° West 240 276 5,400 -1,140 Descending Montreal Center
04:52PM 45.6333 -73.5167 254° West 230 265 4,400 -1,080 Descending Montreal Center
04:53PM 45.5833 -73.5667 215° Southwest 220 253 3,300 -1,200 Descending Montreal Center
04:54PM 45.5500 -73.6167 226° Southwest 200 230 2,000 -1,080 Descending Montreal Center
04:55PM 45.5167 -73.6667 226° Southwest 160 184 1,200 -780 Descending Montreal Center
04:56PM 45.4833 -73.7167 226° Southwest 110 127 500 -600 Descending Montreal Center
04:57PM 45.4500 -73.7500 215° Southwest 120 138 100 -420 Descending Montreal Center